Time;durP1;ratioP1;P1;durP2;ratioP2;P2;SDS_P1;SDS_P2;PMS_P1;PMS_P2;Temp;Humidity;BMP_temperature;BMP_pressure;BME280_temperature;BME280_humidity;BME280_pressure;Samples;Min_cycle;Max_cycle;Signal;HPM_P1;HPM_P2
2022/08/30 00:01:05;;;;;;;11.57;5.78;;;;;;;;;;5014259;28;20025;-78
2022/08/30 00:03:44;;;;;;;11.75;6.80;;;;;;;;;;4998770;28;20045;-78
2022/08/30 00:06:11;;;;;;;8.43;5.45;;;;;;;;;;4999539;28;20022;-77
2022/08/30 00:08:37;;;;;;;10.05;5.93;;;;;;;;;;5016048;28;20490;-78
2022/08/30 00:11:04;;;;;;;9.32;5.72;;;;;;;;;;5017293;28;20569;-80
2022/08/30 00:13:30;;;;;;;8.68;5.30;;;;;;;;;;5019598;28;20411;-80
2022/08/30 00:15:57;;;;;;;8.43;5.57;;;;;;;;;;5020155;28;20030;-79
2022/08/30 00:18:23;;;;;;;10.52;7.20;;;;;;;;;;5001124;28;20047;-80
2022/08/30 00:20:50;;;;;;;10.10;5.60;;;;;;;;;;5019160;28;20113;-79
2022/08/30 00:23:16;;;;;;;9.40;5.55;;;;;;;;;;5020582;28;20113;-80
2022/08/30 00:25:43;;;;;;;7.25;5.65;;;;;;;;;;5020000;28;20022;-80
2022/08/30 00:28:10;;;;;;;9.82;5.47;;;;;;;;;;5002430;28;20018;-80
2022/08/30 00:30:37;;;;;;;8.50;5.80;;;;;;;;;;5003951;28;20017;-80
2022/08/30 00:33:03;;;;;;;9.88;5.22;;;;;;;;;;4999880;28;20062;-80
2022/08/30 00:35:30;;;;;;;8.73;5.30;;;;;;;;;;5000190;28;20032;-80
2022/08/30 00:37:56;;;;;;;9.13;5.80;;;;;;;;;;4999914;28;20030;-80
2022/08/30 00:40:22;;;;;;;9.38;6.22;;;;;;;;;;5016104;28;20122;-79
2022/08/30 00:42:48;;;;;;;9.95;6.65;;;;;;;;;;5018380;28;20033;-80
2022/08/30 00:45:18;;;;;;;8.73;5.57;;;;;;;;;;5001173;28;20569;-79
2022/08/30 00:47:44;;;;;;;8.75;5.60;;;;;;;;;;5002049;28;20541;-79
2022/08/30 00:50:12;;;;;;;9.23;5.78;;;;;;;;;;5018546;28;20033;-80
2022/08/30 00:52:40;;;;;;;9.43;6.13;;;;;;;;;;5014527;28;20022;-80
2022/08/30 00:55:06;;;;;;;10.63;6.18;;;;;;;;;;4999348;28;20018;-80
2022/08/30 00:57:34;;;;;;;8.50;5.80;;;;;;;;;;5000369;28;20076;-79
2022/08/30 01:00:01;;;;;;;9.65;6.40;;;;;;;;;;4982278;28;20034;-80
2022/08/30 01:02:29;;;;;;;10.23;6.50;;;;;;;;;;5000167;28;20033;-80
2022/08/30 01:04:56;;;;;;;9.55;6.20;;;;;;;;;;5000399;28;20442;-80
2022/08/30 01:07:22;;;;;;;9.02;6.05;;;;;;;;;;5001342;28;20089;-79
2022/08/30 01:09:48;;;;;;;8.13;5.47;;;;;;;;;;5012234;28;20014;-79
2022/08/30 01:12:14;;;;;;;9.50;6.18;;;;;;;;;;5018657;28;20041;-79
2022/08/30 01:14:41;;;;;;;8.90;6.57;;;;;;;;;;5018922;28;20034;-80
2022/08/30 01:17:08;;;;;;;10.73;6.80;;;;;;;;;;5018621;28;20510;-80
2022/08/30 01:19:39;;;;;;;11.32;6.50;;;;;;;;;;5017809;28;20022;-80
2022/08/30 01:22:23;;;;;;;10.00;6.50;;;;;;;;;;5018749;28;20021;-80
2022/08/30 01:24:50;;;;;;;9.95;6.38;;;;;;;;;;5018602;28;20315;-80
2022/08/30 01:27:17;;;;;;;8.93;5.80;;;;;;;;;;5001187;28;20105;-80
2022/08/30 01:29:43;;;;;;;9.93;6.20;;;;;;;;;;5017890;28;20401;-80
2022/08/30 01:32:17;;;;;;;11.43;6.25;;;;;;;;;;5018309;28;20029;-80
2022/08/30 01:34:43;;;;;;;9.85;6.15;;;;;;;;;;5018593;28;20117;-80
2022/08/30 01:37:10;;;;;;;9.10;5.70;;;;;;;;;;5018827;28;20486;-80
2022/08/30 01:39:36;;;;;;;9.75;6.00;;;;;;;;;;4991718;28;20076;-80
2022/08/30 01:42:03;;;;;;;8.90;6.07;;;;;;;;;;4999701;28;20238;-80
2022/08/30 01:44:29;;;;;;;9.23;5.97;;;;;;;;;;4998776;28;20550;-79
2022/08/30 01:46:55;;;;;;;11.45;5.97;;;;;;;;;;4999373;28;20050;-79
2022/08/30 01:49:21;;;;;;;9.15;5.82;;;;;;;;;;5017885;28;20175;-80
2022/08/30 01:51:47;;;;;;;8.50;6.03;;;;;;;;;;5018459;28;20033;-79
2022/08/30 01:54:13;;;;;;;8.82;6.35;;;;;;;;;;5018151;28;20029;-80
2022/08/30 01:56:39;;;;;;;10.10;5.82;;;;;;;;;;5016462;28;20057;-80
2022/08/30 01:59:06;;;;;;;8.57;5.90;;;;;;;;;;5007417;28;20033;-80
2022/08/30 02:01:35;;;;;;;7.85;6.00;;;;;;;;;;5017918;28;20349;-80
2022/08/30 02:04:01;;;;;;;10.40;6.13;;;;;;;;;;5017903;28;20065;-80
2022/08/30 02:06:28;;;;;;;9.27;6.00;;;;;;;;;;5005880;28;20022;-80
2022/08/30 02:08:54;;;;;;;8.23;6.05;;;;;;;;;;5018342;28;20045;-79
2022/08/30 02:11:20;;;;;;;9.82;6.30;;;;;;;;;;5015754;28;20022;-79
2022/08/30 02:13:46;;;;;;;10.07;5.88;;;;;;;;;;5017667;28;20516;-80
2022/08/30 02:16:15;;;;;;;8.90;5.97;;;;;;;;;;4999566;28;20409;-79
2022/08/30 02:18:41;;;;;;;11.07;6.40;;;;;;;;;;5018165;28;20029;-80
2022/08/30 02:21:07;;;;;;;9.50;6.18;;;;;;;;;;5016826;28;20034;-80
2022/08/30 02:23:34;;;;;;;9.70;7.05;;;;;;;;;;5000043;28;20033;-80
2022/08/30 02:26:00;;;;;;;12.32;7.05;;;;;;;;;;5018698;28;20061;-80
2022/08/30 02:28:26;;;;;;;11.13;6.88;;;;;;;;;;5017251;28;20101;-80
2022/08/30 02:30:53;;;;;;;10.10;7.07;;;;;;;;;;5016191;28;20453;-79
2022/08/30 02:33:19;;;;;;;10.23;6.60;;;;;;;;;;5016695;28;20018;-79
2022/08/30 02:35:45;;;;;;;14.75;9.25;;;;;;;;;;5017470;28;20029;-79
2022/08/30 02:38:11;;;;;;;11.25;7.65;;;;;;;;;;5017969;28;20083;-80
2022/08/30 02:40:37;;;;;;;11.75;8.38;;;;;;;;;;5016069;28;20082;-80
2022/08/30 02:43:03;;;;;;;10.82;7.90;;;;;;;;;;5018660;28;20025;-79
2022/08/30 02:45:29;;;;;;;11.55;8.02;;;;;;;;;;5020431;28;20022;-80
2022/08/30 02:47:55;;;;;;;12.30;8.25;;;;;;;;;;5020177;28;20030;-80
2022/08/30 02:50:22;;;;;;;12.43;7.90;;;;;;;;;;5019405;28;20022;-80
2022/08/30 02:52:48;;;;;;;11.57;8.27;;;;;;;;;;5019663;28;20034;-80
2022/08/30 02:55:15;;;;;;;11.55;8.05;;;;;;;;;;5019544;28;20513;-80
2022/08/30 02:57:42;;;;;;;12.32;8.30;;;;;;;;;;5016503;28;20030;-79
2022/08/30 03:00:09;;;;;;;11.50;7.78;;;;;;;;;;5021435;28;20022;-79
2022/08/30 03:02:35;;;;;;;12.48;7.53;;;;;;;;;;5019952;28;20018;-79
2022/08/30 03:05:02;;;;;;;13.00;8.80;;;;;;;;;;5002090;28;20069;-79
2022/08/30 03:07:28;;;;;;;12.48;8.27;;;;;;;;;;5005497;28;20029;-79
2022/08/30 03:09:54;;;;;;;10.65;8.00;;;;;;;;;;5020611;28;20026;-79
2022/08/30 03:12:20;;;;;;;11.02;7.60;;;;;;;;;;5021681;28;20109;-79
2022/08/30 03:14:47;;;;;;;13.13;8.32;;;;;;;;;;5020940;28;20030;-80
2022/08/30 03:17:13;;;;;;;11.80;7.40;;;;;;;;;;5019674;28;20038;-79
2022/08/30 03:19:39;;;;;;;11.23;7.78;;;;;;;;;;5021156;28;20030;-79
2022/08/30 03:22:06;;;;;;;12.52;7.47;;;;;;;;;;5018587;28;20022;-79
2022/08/30 03:24:33;;;;;;;12.90;8.35;;;;;;;;;;5019521;28;20030;-79
2022/08/30 03:26:59;;;;;;;11.52;8.27;;;;;;;;;;5018453;28;20018;-79
2022/08/30 03:29:25;;;;;;;11.77;8.18;;;;;;;;;;5020876;28;20030;-79
2022/08/30 03:31:51;;;;;;;12.60;8.88;;;;;;;;;;5020074;28;20467;-79
2022/08/30 03:34:18;;;;;;;11.30;7.88;;;;;;;;;;5000569;28;20022;-80
2022/08/30 03:36:44;;;;;;;9.88;7.90;;;;;;;;;;5019675;28;20123;-79
2022/08/30 03:39:10;;;;;;;11.95;8.20;;;;;;;;;;4992070;28;20030;-79
2022/08/30 03:41:36;;;;;;;11.55;7.72;;;;;;;;;;5017807;28;20025;-79
2022/08/30 03:44:02;;;;;;;10.40;8.10;;;;;;;;;;5021741;28;20034;-79
2022/08/30 03:46:29;;;;;;;11.27;8.63;;;;;;;;;;5004663;28;20033;-80
2022/08/30 03:48:55;;;;;;;12.48;8.23;;;;;;;;;;5020684;28;20026;-79
2022/08/30 03:51:22;;;;;;;11.60;8.48;;;;;;;;;;5022927;28;20044;-79
2022/08/30 03:53:48;;;;;;;11.07;8.45;;;;;;;;;;5021550;28;20022;-79
2022/08/30 03:56:15;;;;;;;12.05;8.43;;;;;;;;;;5020490;28;20030;-79
2022/08/30 03:58:41;;;;;;;12.27;7.85;;;;;;;;;;5019796;28;20061;-79
2022/08/30 04:01:07;;;;;;;12.40;8.18;;;;;;;;;;5021956;28;20565;-80
2022/08/30 04:03:34;;;;;;;11.10;8.15;;;;;;;;;;5003063;28;20398;-79
2022/08/30 04:06:00;;;;;;;12.13;8.43;;;;;;;;;;5005068;28;20043;-79
2022/08/30 04:08:27;;;;;;;11.38;8.38;;;;;;;;;;5020793;28;20030;-79
2022/08/30 04:10:54;;;;;;;13.43;9.23;;;;;;;;;;5003490;28;20022;-80
2022/08/30 04:13:20;;;;;;;12.73;8.40;;;;;;;;;;5023110;28;20018;-79
2022/08/30 04:15:46;;;;;;;10.60;8.43;;;;;;;;;;5021096;28;20033;-80
2022/08/30 04:18:12;;;;;;;16.23;8.32;;;;;;;;;;5003949;28;20038;-79
2022/08/30 04:20:38;;;;;;;12.57;8.45;;;;;;;;;;5022809;28;20030;-79
2022/08/30 04:23:08;;;;;;;11.95;8.07;;;;;;;;;;5022145;28;20026;-80
2022/08/30 04:25:35;;;;;;;11.77;8.20;;;;;;;;;;5021163;28;20052;-80
2022/08/30 04:28:01;;;;;;;11.15;8.30;;;;;;;;;;5004555;28;20030;-80
2022/08/30 04:30:28;;;;;;;10.73;7.63;;;;;;;;;;5022852;28;20026;-80
2022/08/30 04:32:54;;;;;;;13.43;8.30;;;;;;;;;;5020867;28;20026;-80
2022/08/30 04:35:20;;;;;;;13.32;8.45;;;;;;;;;;5021876;28;20026;-79
2022/08/30 04:37:46;;;;;;;11.07;8.38;;;;;;;;;;5021718;28;20397;-79
2022/08/30 04:40:13;;;;;;;11.23;7.38;;;;;;;;;;5021543;28;20098;-79
2022/08/30 04:42:39;;;;;;;11.90;8.00;;;;;;;;;;5022787;28;20022;-79
2022/08/30 04:45:06;;;;;;;12.05;8.23;;;;;;;;;;5021906;28;20030;-80
2022/08/30 04:47:32;;;;;;;12.65;8.13;;;;;;;;;;5023644;28;20088;-80
2022/08/30 04:49:58;;;;;;;11.30;8.40;;;;;;;;;;5026192;28;20474;-79
2022/08/30 04:52:24;;;;;;;11.45;8.35;;;;;;;;;;5025404;28;20490;-80
2022/08/30 04:54:54;;;;;;;13.85;8.55;;;;;;;;;;5007079;28;20096;-80
2022/08/30 04:57:21;;;;;;;12.95;8.40;;;;;;;;;;5022837;28;20097;-80
2022/08/30 04:59:47;;;;;;;10.55;7.80;;;;;;;;;;5025234;28;20022;-79
2022/08/30 05:02:13;;;;;;;12.50;9.02;;;;;;;;;;5026093;28;20018;-79
2022/08/30 05:05:38;;;;;;;11.85;8.52;;;;;;;;;;5025460;28;20037;-80
2022/08/30 05:07:25;;;;;;;12.30;8.40;;;;;;;;;;5024308;28;20648;-79
2022/08/30 05:09:51;;;;;;;10.60;7.72;;;;;;;;;;5023754;28;20018;-79
2022/08/30 05:12:17;;;;;;;10.35;7.07;;;;;;;;;;5024465;28;20090;-79
2022/08/30 05:14:43;;;;;;;9.55;6.97;;;;;;;;;;5026967;28;20044;-79
2022/08/30 05:17:09;;;;;;;10.63;7.68;;;;;;;;;;4994796;28;20545;-80
2022/08/30 05:19:35;;;;;;;10.23;7.30;;;;;;;;;;5006397;28;20034;-79
2022/08/30 05:22:01;;;;;;;11.27;7.53;;;;;;;;;;5005302;28;20074;-79
2022/08/30 05:24:27;;;;;;;11.93;7.32;;;;;;;;;;5021461;28;20057;-80
2022/08/30 05:26:53;;;;;;;12.18;7.40;;;;;;;;;;4989024;28;20037;-79
2022/08/30 05:29:19;;;;;;;11.55;7.35;;;;;;;;;;5006270;28;20030;-80
2022/08/30 05:31:45;;;;;;;10.05;6.53;;;;;;;;;;5006002;28;20026;-79
2022/08/30 05:34:11;;;;;;;10.82;7.20;;;;;;;;;;4989109;28;20023;-80
2022/08/30 05:36:39;;;;;;;10.27;7.38;;;;;;;;;;5013328;28;20048;-80
2022/08/30 05:39:08;;;;;;;17.85;8.50;;;;;;;;;;5025004;28;20018;-79
2022/08/30 05:41:35;;;;;;;9.45;7.25;;;;;;;;;;5024946;28;20133;-79
2022/08/30 05:44:01;;;;;;;10.73;7.00;;;;;;;;;;5025871;28;20109;-80
2022/08/30 05:46:31;;;;;;;11.38;7.57;;;;;;;;;;5025311;28;20034;-80
2022/08/30 05:48:58;;;;;;;8.80;6.03;;;;;;;;;;5025181;28;20014;-80
2022/08/30 05:51:25;;;;;;;13.43;7.43;;;;;;;;;;5006413;28;20058;-80
2022/08/30 05:53:52;;;;;;;10.45;6.75;;;;;;;;;;5005996;28;20034;-79
2022/08/30 05:56:19;;;;;;;9.13;6.20;;;;;;;;;;5011274;28;20112;-80
2022/08/30 05:58:45;;;;;;;8.52;6.22;;;;;;;;;;5006859;28;20093;-80
2022/08/30 06:01:22;;;;;;;7.70;5.80;;;;;;;;;;5026084;28;20029;-80
2022/08/30 06:03:48;;;;;;;10.95;6.38;;;;;;;;;;5024129;28;20044;-79
2022/08/30 06:06:14;;;;;;;11.80;6.20;;;;;;;;;;5026525;28;20026;-80
2022/08/30 06:08:44;;;;;;;9.05;5.57;;;;;;;;;;5024711;28;20029;-79
2022/08/30 06:11:10;;;;;;;10.25;6.10;;;;;;;;;;5025979;28;20053;-79
2022/08/30 06:13:36;;;;;;;10.70;6.15;;;;;;;;;;5026242;28;20059;-80
2022/08/30 06:16:02;;;;;;;8.63;5.43;;;;;;;;;;5025484;28;20034;-79
2022/08/30 06:18:29;;;;;;;12.38;5.78;;;;;;;;;;5024670;28;20524;-80
2022/08/30 06:20:55;;;;;;;8.95;5.35;;;;;;;;;;5024157;28;20018;-79
2022/08/30 06:23:21;;;;;;;9.00;5.53;;;;;;;;;;5024481;28;20033;-79
2022/08/30 06:25:48;;;;;;;8.10;5.18;;;;;;;;;;5025398;28;20029;-79
2022/08/30 06:28:14;;;;;;;10.57;5.93;;;;;;;;;;5025914;28;20014;-79
2022/08/30 06:30:41;;;;;;;9.63;5.47;;;;;;;;;;5017632;28;20437;-79
2022/08/30 06:33:07;;;;;;;10.20;6.50;;;;;;;;;;5006422;28;20450;-79
2022/08/30 06:35:33;;;;;;;9.77;5.88;;;;;;;;;;5006273;28;20022;-79
2022/08/30 06:37:59;;;;;;;9.13;6.00;;;;;;;;;;5006958;28;20434;-78
2022/08/30 06:40:26;;;;;;;9.98;6.15;;;;;;;;;;5026535;28;20026;-80
2022/08/30 06:42:53;;;;;;;11.27;6.00;;;;;;;;;;5021116;28;20048;-79
2022/08/30 06:45:19;;;;;;;7.22;5.47;;;;;;;;;;5020987;28;20056;-80
2022/08/30 06:47:45;;;;;;;9.25;5.65;;;;;;;;;;5026884;28;20018;-79
2022/08/30 06:50:12;;;;;;;8.60;5.40;;;;;;;;;;5025109;28;20036;-79
2022/08/30 06:52:42;;;;;;;8.18;5.72;;;;;;;;;;5008686;28;20026;-79
2022/08/30 06:55:12;;;;;;;9.25;5.43;;;;;;;;;;5030841;28;20064;-79
2022/08/30 06:57:38;;;;;;;9.30;4.80;;;;;;;;;;5027971;28;20437;-80
2022/08/30 07:00:05;;;;;;;10.48;6.38;;;;;;;;;;5010547;28;20030;-79
2022/08/30 07:02:31;;;;;;;9.05;5.78;;;;;;;;;;5006772;28;20026;-80
2022/08/30 07:04:57;;;;;;;8.60;5.30;;;;;;;;;;5006593;28;20022;-80
2022/08/30 07:07:23;;;;;;;8.90;5.57;;;;;;;;;;5006496;28;20034;-79
2022/08/30 07:09:49;;;;;;;10.07;5.63;;;;;;;;;;5020979;28;20474;-79
2022/08/30 07:12:16;;;;;;;9.27;5.32;;;;;;;;;;5025382;28;20034;-79
2022/08/30 07:14:42;;;;;;;8.35;5.03;;;;;;;;;;5007463;28;20022;-80
2022/08/30 07:19:53;;;;;;;8.00;5.38;;;;;;;;;;5025577;28;20093;-79
2022/08/30 07:22:20;;;;;;;9.05;6.13;;;;;;;;;;5026177;28;20033;-79
2022/08/30 07:24:46;;;;;;;7.78;4.70;;;;;;;;;;5007754;28;20421;-79
2022/08/30 07:27:12;;;;;;;8.15;5.03;;;;;;;;;;5024567;28;20024;-79
2022/08/30 07:29:38;;;;;;;7.80;4.85;;;;;;;;;;5019021;28;20034;-79
2022/08/30 07:32:04;;;;;;;9.55;4.93;;;;;;;;;;5025821;28;20037;-80
2022/08/30 07:34:30;;;;;;;8.85;4.88;;;;;;;;;;5024511;28;20034;-80
2022/08/30 07:36:56;;;;;;;8.50;5.50;;;;;;;;;;5008005;28;20036;-80
2022/08/30 07:39:23;;;;;;;9.23;4.72;;;;;;;;;;5024476;28;20044;-79
2022/08/30 07:41:49;;;;;;;8.38;5.07;;;;;;;;;;5024821;28;20038;-79
2022/08/30 07:44:16;;;;;;;10.15;5.13;;;;;;;;;;5024157;28;20025;-80
2022/08/30 07:46:42;;;;;;;8.52;4.90;;;;;;;;;;5025937;28;20375;-79
2022/08/30 07:49:10;;;;;;;9.65;4.75;;;;;;;;;;5025094;28;20398;-78
2022/08/30 07:51:37;;;;;;;7.97;4.60;;;;;;;;;;5025757;28;20028;-79
2022/08/30 07:54:03;;;;;;;9.20;4.60;;;;;;;;;;5023813;28;20082;-80
2022/08/30 07:56:29;;;;;;;7.97;4.20;;;;;;;;;;5008523;28;20029;-79
2022/08/30 07:58:55;;;;;;;8.75;4.35;;;;;;;;;;5023132;28;20025;-79
2022/08/30 08:01:22;;;;;;;7.05;4.15;;;;;;;;;;5025450;28;20037;-81
2022/08/30 08:03:49;;;;;;;7.60;4.28;;;;;;;;;;5025339;28;20036;-79
2022/08/30 08:06:16;;;;;;;7.68;4.82;;;;;;;;;;5011387;28;20035;-79
2022/08/30 08:08:44;;;;;;;9.15;4.53;;;;;;;;;;5010788;28;20077;-79
2022/08/30 08:11:13;;;;;;;7.78;4.55;;;;;;;;;;5022325;28;20026;-79
2022/08/30 08:13:39;;;;;;;8.05;4.78;;;;;;;;;;5024873;28;20018;-79
2022/08/30 08:16:05;;;;;;;7.47;4.55;;;;;;;;;;5024632;28;20030;-80
2022/08/30 08:18:32;;;;;;;9.93;5.53;;;;;;;;;;5024447;28;20029;-79
2022/08/30 08:20:58;;;;;;;7.47;4.25;;;;;;;;;;5002576;28;20045;-79
2022/08/30 08:23:24;;;;;;;9.13;4.30;;;;;;;;;;4991042;28;20058;-79
2022/08/30 08:25:51;;;;;;;7.75;3.80;;;;;;;;;;5008146;28;20053;-79
2022/08/30 08:28:18;;;;;;;6.70;3.95;;;;;;;;;;4991457;28;20090;-79
2022/08/30 08:30:44;;;;;;;6.65;4.32;;;;;;;;;;5008313;28;20023;-79
2022/08/30 08:33:12;;;;;;;9.13;4.78;;;;;;;;;;5011827;28;20053;-79
2022/08/30 08:35:38;;;;;;;11.07;4.78;;;;;;;;;;5029131;28;20158;-79
2022/08/30 08:38:04;;;;;;;8.48;4.05;;;;;;;;;;5029456;28;20033;-79
2022/08/30 08:40:35;;;;;;;7.18;4.07;;;;;;;;;;5029148;28;20023;-79
2022/08/30 08:43:04;;;;;;;8.18;4.55;;;;;;;;;;5028169;28;20029;-79
2022/08/30 08:45:43;;;;;;;8.95;4.43;;;;;;;;;;5027363;28;20097;-79
2022/08/30 08:48:29;;;;;;;9.45;4.63;;;;;;;;;;5026322;28;20029;-79
2022/08/30 08:53:43;;;;;;;8.32;4.13;;;;;;;;;;5007303;28;20394;-79
2022/08/30 08:56:11;;;;;;;7.70;3.88;;;;;;;;;;5010461;28;20064;-79
2022/08/30 08:58:50;;;;;;;7.97;3.50;;;;;;;;;;5026450;28;20033;-79
2022/08/30 09:01:18;;;;;;;6.93;3.90;;;;;;;;;;5025858;28;20091;-79
2022/08/30 09:03:45;;;;;;;9.57;3.63;;;;;;;;;;5025086;28;20030;-79
2022/08/30 09:06:24;;;;;;;6.85;3.75;;;;;;;;;;5025708;28;20033;-79
2022/08/30 09:08:50;;;;;;;5.75;3.20;;;;;;;;;;5024144;28;20033;-79
2022/08/30 09:11:36;;;;;;;;;;;;;;;;;;;;;
2022/08/30 09:14:03;;;;;;;5.40;3.45;;;;;;;;;;5024340;28;20108;-78
2022/08/30 09:16:47;;;;;;;5.63;3.50;;;;;;;;;;5019417;28;20049;-79
2022/08/30 09:19:32;;;;;;;5.50;2.80;;;;;;;;;;5004722;28;20029;-79
2022/08/30 09:22:03;;;;;;;5.63;3.50;;;;;;;;;;5011588;28;20034;-79
2022/08/30 09:24:41;;;;;;;6.10;3.30;;;;;;;;;;5026558;28;20061;-79
2022/08/30 09:27:15;;;;;;;6.65;2.97;;;;;;;;;;5026138;28;20014;-80
2022/08/30 09:29:49;;;;;;;6.35;3.38;;;;;;;;;;5024735;28;20053;-79
2022/08/30 09:32:51;;;;;;;5.15;3.05;;;;;;;;;;4997487;28;20169;-79
2022/08/30 09:35:22;;;;;;;6.22;3.05;;;;;;;;;;4928452;29;20036;-79
2022/08/30 09:38:03;;;;;;;7.95;3.40;;;;;;;;;;4927603;29;20032;-79
2022/08/30 09:40:36;;;;;;;6.65;3.50;;;;;;;;;;4927203;29;20035;-79
2022/08/30 09:43:05;;;;;;;6.05;3.40;;;;;;;;;;4943372;29;20032;-79
2022/08/30 09:45:34;;;;;;;5.70;3.13;;;;;;;;;;4945555;29;20079;-79
2022/08/30 09:48:01;;;;;;;7.15;3.38;;;;;;;;;;4946256;29;20424;-79
2022/08/30 09:50:32;;;;;;;7.60;3.40;;;;;;;;;;4931525;29;20043;-79
2022/08/30 09:53:15;;;;;;;6.07;3.10;;;;;;;;;;4940574;29;20099;-79
2022/08/30 09:55:47;;;;;;;7.32;3.20;;;;;;;;;;4945783;29;20058;-79
2022/08/30 09:58:19;;;;;;;6.68;3.17;;;;;;;;;;4929126;29;20028;-79
2022/08/30 10:00:57;;;;;;;7.65;3.20;;;;;;;;;;4945174;29;20040;-79
2022/08/30 10:03:27;;;;;;;6.40;3.20;;;;;;;;;;4935275;29;20067;-79
2022/08/30 10:06:14;;;;;;;6.40;3.30;;;;;;;;;;4949355;29;20044;-80
2022/08/30 10:08:40;;;;;;;7.45;3.53;;;;;;;;;;4968660;28;20057;-79
2022/08/30 10:11:09;;;;;;;6.18;3.10;;;;;;;;;;5022799;28;20394;-80
2022/08/30 10:13:38;;;;;;;7.07;3.22;;;;;;;;;;5019632;28;20026;-80
2022/08/30 10:16:17;;;;;;;6.38;3.10;;;;;;;;;;5019517;28;20040;-79
2022/08/30 10:18:46;;;;;;;5.85;2.80;;;;;;;;;;5021738;28;20069;-79
2022/08/30 10:21:15;;;;;;;5.30;3.22;;;;;;;;;;5022544;28;20398;-79
2022/08/30 10:23:44;;;;;;;5.63;2.80;;;;;;;;;;5024689;28;20087;-80
2022/08/30 10:26:28;;;;;;;5.72;2.90;;;;;;;;;;5028165;28;20041;-80
2022/08/30 10:29:01;;;;;;;6.88;3.30;;;;;;;;;;5019370;28;20465;-79
2022/08/30 10:31:27;;;;;;;;;;;;;;;;;;5008712;28;20029;-79
2022/08/30 10:33:56;;;;;;;5.38;2.60;;;;;;;;;;5007625;28;19906;-79
2022/08/30 10:36:27;;;;;;;6.50;3.10;;;;;;;;;;5025702;28;20034;-79
2022/08/30 10:38:54;;;;;;;5.55;3.03;;;;;;;;;;5009158;28;20026;-80
2022/08/30 10:41:22;;;;;;;5.20;3.00;;;;;;;;;;5026431;28;20030;-79
2022/08/30 10:43:49;;;;;;;6.95;3.05;;;;;;;;;;5000861;28;20049;-79
2022/08/30 10:46:33;;;;;;;5.63;3.55;;;;;;;;;;5024056;28;20034;-79
2022/08/30 10:49:01;;;;;;;5.32;2.80;;;;;;;;;;5018098;28;20029;-79
2022/08/30 10:51:40;;;;;;;5.43;3.17;;;;;;;;;;5002245;28;20386;-79
2022/08/30 10:54:12;;;;;;;6.25;3.50;;;;;;;;;;5020483;28;20025;-80
2022/08/30 10:56:40;;;;;;;5.55;3.15;;;;;;;;;;4999852;28;20083;-79
2022/08/30 10:59:06;;;;;;;6.32;3.38;;;;;;;;;;5019019;28;20445;-79
2022/08/30 11:01:48;;;;;;;5.00;3.30;;;;;;;;;;5001660;28;20041;-80
2022/08/30 11:04:17;;;;;;;7.15;3.20;;;;;;;;;;5014286;28;20022;-80
2022/08/30 11:06:53;;;;;;;6.43;3.20;;;;;;;;;;5018138;28;20485;-80
2022/08/30 11:09:38;;;;;;;5.95;2.97;;;;;;;;;;5019415;28;20026;-80
2022/08/30 11:12:25;;;;;;;6.32;3.10;;;;;;;;;;5018737;28;20032;-80
2022/08/30 11:14:51;;;;;;;4.45;2.92;;;;;;;;;;4988624;28;20298;-78
2022/08/30 11:17:25;;;;;;;5.25;2.88;;;;;;;;;;4998775;28;20046;-80
2022/08/30 11:19:53;;;;;;;7.97;3.13;;;;;;;;;;4998975;28;20113;-80
2022/08/30 11:22:27;;;;;;;5.97;3.15;;;;;;;;;;4999208;28;20026;-80
2022/08/30 11:25:08;;;;;;;7.38;3.40;;;;;;;;;;5016213;28;20105;-80
2022/08/30 11:27:49;;;;;;;5.55;3.20;;;;;;;;;;5018129;28;20022;-79
2022/08/30 11:30:24;;;;;;;6.88;3.17;;;;;;;;;;5018234;28;20093;-79
2022/08/30 11:33:01;;;;;;;5.88;2.92;;;;;;;;;;5018310;28;20527;-79
2022/08/30 11:35:39;;;;;;;6.20;3.30;;;;;;;;;;5017667;28;20033;-79
2022/08/30 11:38:12;;;;;;;7.28;3.40;;;;;;;;;;5005672;28;20489;-79
2022/08/30 11:40:49;;;;;;;5.65;3.20;;;;;;;;;;5002184;28;20056;-79
2022/08/30 11:43:34;;;;;;;6.07;3.25;;;;;;;;;;5017494;28;20428;-79
2022/08/30 11:46:18;;;;;;;6.10;3.60;;;;;;;;;;5018055;28;20025;-79
2022/08/30 11:48:50;;;;;;;5.65;3.17;;;;;;;;;;5017705;28;20026;-80
2022/08/30 11:51:35;;;;;;;7.13;3.28;;;;;;;;;;4981747;28;20439;-79
2022/08/30 11:54:06;;;;;;;4.93;3.17;;;;;;;;;;5017486;28;20034;-80
2022/08/30 11:56:36;;;;;;;7.05;3.20;;;;;;;;;;5002921;28;20083;-80
2022/08/30 11:59:22;;;;;;;6.68;2.95;;;;;;;;;;5003290;28;20038;-79
2022/08/30 12:01:49;;;;;;;5.75;3.30;;;;;;;;;;5001542;28;20266;-79
2022/08/30 12:04:19;;;;;;;6.93;3.47;;;;;;;;;;5001375;28;20022;-79
2022/08/30 12:06:45;;;;;;;6.97;3.50;;;;;;;;;;5010382;28;20056;-79
2022/08/30 12:09:31;;;;;;;5.93;2.92;;;;;;;;;;5019962;28;20030;-79
2022/08/30 12:11:59;;;;;;;6.22;3.30;;;;;;;;;;5020402;28;20022;-80
2022/08/30 12:14:31;;;;;;;5.55;3.38;;;;;;;;;;5021796;28;20390;-80
2022/08/30 12:19:46;;;;;;;6.30;2.92;;;;;;;;;;5001996;28;20041;-80
2022/08/30 12:22:15;;;;;;;7.22;3.90;;;;;;;;;;5002993;28;20042;-80
2022/08/30 12:24:42;;;;;;;8.93;3.78;;;;;;;;;;5002378;28;20113;-80
2022/08/30 12:27:22;;;;;;;6.70;3.63;;;;;;;;;;5011906;28;20030;-80
2022/08/30 12:29:55;;;;;;;6.85;3.30;;;;;;;;;;5015145;28;20025;-79
2022/08/30 12:32:21;;;;;;;5.85;3.28;;;;;;;;;;5001796;28;20026;-80
2022/08/30 12:34:52;;;;;;;6.72;3.33;;;;;;;;;;5000614;28;20300;-79
2022/08/30 12:37:18;;;;;;;6.95;3.13;;;;;;;;;;5019493;28;20022;-80
2022/08/30 12:39:44;;;;;;;9.25;3.83;;;;;;;;;;5021944;28;20038;-80
2022/08/30 12:42:13;;;;;;;6.50;3.42;;;;;;;;;;5021402;28;20041;-80
2022/08/30 12:44:39;;;;;;;7.70;3.53;;;;;;;;;;5021506;28;20061;-80
2022/08/30 12:47:06;;;;;;;5.88;3.47;;;;;;;;;;5020870;28;20077;-80
2022/08/30 12:49:35;;;;;;;7.25;3.15;;;;;;;;;;5019584;28;20482;-80
2022/08/30 12:52:22;;;;;;;7.07;3.72;;;;;;;;;;5020948;28;20033;-79
2022/08/30 12:54:48;;;;;;;6.68;3.25;;;;;;;;;;5021192;28;20018;-79
2022/08/30 12:57:33;;;;;;;6.10;3.15;;;;;;;;;;5020985;28;20042;-79
2022/08/30 12:59:59;;;;;;;5.60;3.25;;;;;;;;;;5020765;28;20033;-80
2022/08/30 13:02:26;;;;;;;6.25;3.42;;;;;;;;;;5021550;28;20025;-80
2022/08/30 13:04:53;;;;;;;7.57;3.42;;;;;;;;;;5004631;28;20041;-79
2022/08/30 13:07:30;;;;;;;6.65;3.50;;;;;;;;;;5013246;28;20018;-80
2022/08/30 13:10:02;;;;;;;6.43;3.30;;;;;;;;;;5004079;28;20080;-79
2022/08/30 13:12:28;;;;;;;5.90;3.33;;;;;;;;;;5021584;28;20026;-79
2022/08/30 13:15:08;;;;;;;6.32;3.40;;;;;;;;;;5002973;28;20033;-79
2022/08/30 13:17:34;;;;;;;8.10;3.40;;;;;;;;;;5013975;28;20569;-80
2022/08/30 13:20:05;;;;;;;7.65;3.60;;;;;;;;;;5011932;28;20029;-79
2022/08/30 13:22:35;;;;;;;5.38;3.08;;;;;;;;;;5019585;28;20065;-79
2022/08/30 13:25:02;;;;;;;6.53;3.35;;;;;;;;;;5018795;28;20103;-79
2022/08/30 13:27:28;;;;;;;6.78;3.42;;;;;;;;;;5018873;28;20460;-79
2022/08/30 13:29:55;;;;;;;6.40;3.60;;;;;;;;;;5018463;28;20026;-78
2022/08/30 13:32:21;;;;;;;7.45;3.55;;;;;;;;;;5002121;28;20034;-79
2022/08/30 13:34:47;;;;;;;7.10;3.42;;;;;;;;;;5019928;28;20473;-78
2022/08/30 13:37:18;;;;;;;7.25;3.20;;;;;;;;;;5018168;28;20064;-79
2022/08/30 13:39:44;;;;;;;5.78;3.25;;;;;;;;;;5019851;28;20038;-79
2022/08/30 13:42:10;;;;;;;6.20;3.25;;;;;;;;;;5019649;28;20029;-79
2022/08/30 13:44:37;;;;;;;5.30;3.05;;;;;;;;;;5018383;28;20037;-79
2022/08/30 13:47:04;;;;;;;5.78;3.10;;;;;;;;;;5019245;28;20060;-79
2022/08/30 13:49:31;;;;;;;5.75;3.85;;;;;;;;;;5019566;28;20080;-79
2022/08/30 13:51:57;;;;;;;6.47;3.30;;;;;;;;;;5018250;28;20026;-79
2022/08/30 13:54:24;;;;;;;5.43;3.22;;;;;;;;;;5017492;28;20022;-78
2022/08/30 13:56:51;;;;;;;5.38;3.22;;;;;;;;;;5016070;28;20014;-78
2022/08/30 13:59:18;;;;;;;5.93;3.10;;;;;;;;;;5014639;28;20037;-79
2022/08/30 14:01:45;;;;;;;6.28;2.95;;;;;;;;;;5018875;28;20509;-79
2022/08/30 14:04:11;;;;;;;7.45;3.72;;;;;;;;;;5017687;28;20046;-79
2022/08/30 14:06:37;;;;;;;6.65;3.33;;;;;;;;;;5016609;28;20022;-78
2022/08/30 14:09:05;;;;;;;6.15;3.60;;;;;;;;;;5017492;28;20022;-78
2022/08/30 14:11:32;;;;;;;5.20;3.22;;;;;;;;;;5015022;28;20686;-78
2022/08/30 14:13:58;;;;;;;6.05;3.25;;;;;;;;;;5017275;28;20045;-79
2022/08/30 14:16:24;;;;;;;5.80;3.50;;;;;;;;;;5017567;28;20053;-78
2022/08/30 14:18:50;;;;;;;6.13;3.45;;;;;;;;;;5000471;28;20029;-78
2022/08/30 14:21:16;;;;;;;7.65;3.22;;;;;;;;;;5016315;28;20029;-78
2022/08/30 14:23:42;;;;;;;5.47;3.33;;;;;;;;;;4992229;28;20030;-78
2022/08/30 14:26:10;;;;;;;7.45;3.70;;;;;;;;;;5015938;28;20026;-78
2022/08/30 14:28:36;;;;;;;6.22;3.55;;;;;;;;;;5016528;28;20022;-78
2022/08/30 14:31:03;;;;;;;6.40;3.50;;;;;;;;;;4999089;28;20029;-79
2022/08/30 14:33:29;;;;;;;6.32;3.67;;;;;;;;;;5016513;28;20434;-78
2022/08/30 14:35:55;;;;;;;7.65;3.90;;;;;;;;;;5012997;28;20033;-79
2022/08/30 14:38:21;;;;;;;7.25;3.72;;;;;;;;;;4995963;28;20043;-79
2022/08/30 14:40:47;;;;;;;6.78;3.65;;;;;;;;;;4995186;28;20042;-77
2022/08/30 14:43:13;;;;;;;5.70;3.30;;;;;;;;;;5010666;28;20056;-77
2022/08/30 14:45:39;;;;;;;5.40;3.50;;;;;;;;;;4994960;28;20022;-77
2022/08/30 14:48:08;;;;;;;5.80;3.40;;;;;;;;;;5012977;28;20081;-78
2022/08/30 14:50:36;;;;;;;6.28;3.35;;;;;;;;;;5012855;28;20018;-77
2022/08/30 14:53:03;;;;;;;7.45;3.63;;;;;;;;;;5012435;28;20540;-77
2022/08/30 14:55:31;;;;;;;5.43;3.40;;;;;;;;;;4994684;28;20459;-77
2022/08/30 14:57:57;;;;;;;6.63;3.38;;;;;;;;;;4975523;28;20049;-77